sensor_id;sensor_type;location;lat;lon;timestamp;pressure;altitude;pressure_sealevel;temperature;humidity
35655;BME280;21773;50.010;19.972;2023-07-31T00:02:10;98315.56;;;23.24;100.00
35655;BME280;21773;50.010;19.972;2023-07-31T00:05:13;98313.63;;;23.25;100.00
35655;BME280;21773;50.010;19.972;2023-07-31T00:08:18;98276.47;;;22.97;100.00
35655;BME280;21773;50.010;19.972;2023-07-31T00:11:21;98312.28;;;23.14;100.00
35655;BME280;21773;50.010;19.972;2023-07-31T00:14:24;98307.41;;;23.11;100.00
35655;BME280;21773;50.010;19.972;2023-07-31T00:17:28;98315.34;;;23.12;100.00
35655;BME280;21773;50.010;19.972;2023-07-31T00:20:31;98315.97;;;23.09;100.00
35655;BME280;21773;50.010;19.972;2023-07-31T00:23:36;98308.84;;;23.08;100.00
35655;BME280;21773;50.010;19.972;2023-07-31T00:26:39;98311.91;;;23.07;100.00
35655;BME280;21773;50.010;19.972;2023-07-31T00:29:42;98316.25;;;22.99;100.00
35655;BME280;21773;50.010;19.972;2023-07-31T00:32:46;98324.81;;;22.98;100.00
35655;BME280;21773;50.010;19.972;2023-07-31T00:35:49;98326.25;;;22.95;100.00
35655;BME280;21773;50.010;19.972;2023-07-31T00:38:55;98336.75;;;22.93;100.00
35655;BME280;21773;50.010;19.972;2023-07-31T00:41:58;98330.94;;;22.95;100.00
35655;BME280;21773;50.010;19.972;2023-07-31T00:45:01;98336.75;;;22.93;100.00
35655;BME280;21773;50.010;19.972;2023-07-31T00:48:05;98325.06;;;22.87;100.00
35655;BME280;21773;50.010;19.972;2023-07-31T00:51:09;98324.44;;;22.82;100.00
35655;BME280;21773;50.010;19.972;2023-07-31T00:54:14;98326.97;;;22.78;100.00
35655;BME280;21773;50.010;19.972;2023-07-31T00:57:19;98324.88;;;22.75;100.00
35655;BME280;21773;50.010;19.972;2023-07-31T01:00:22;98326.09;;;22.69;100.00
35655;BME280;21773;50.010;19.972;2023-07-31T01:03:25;98329.94;;;22.68;100.00
35655;BME280;21773;50.010;19.972;2023-07-31T01:06:36;98326.72;;;22.66;100.00
35655;BME280;21773;50.010;19.972;2023-07-31T01:09:44;98315.34;;;22.59;100.00
35655;BME280;21773;50.010;19.972;2023-07-31T01:12:48;98328.34;;;22.67;100.00
35655;BME280;21773;50.010;19.972;2023-07-31T01:15:53;98333.41;;;22.74;100.00
35655;BME280;21773;50.010;19.972;2023-07-31T01:18:56;98328.44;;;22.76;100.00
35655;BME280;21773;50.010;19.972;2023-07-31T01:22:15;98324.44;;;22.68;100.00
35655;BME280;21773;50.010;19.972;2023-07-31T01:25:32;98324.88;;;22.75;100.00
35655;BME280;21773;50.010;19.972;2023-07-31T01:28:46;98322.81;;;22.81;100.00
35655;BME280;21773;50.010;19.972;2023-07-31T01:31:55;98333.47;;;22.82;100.00
35655;BME280;21773;50.010;19.972;2023-07-31T01:34:59;98329.41;;;22.80;100.00
35655;BME280;21773;50.010;19.972;2023-07-31T01:38:04;98332.66;;;22.82;100.00
35655;BME280;21773;50.010;19.972;2023-07-31T01:41:08;98334.75;;;22.76;100.00
35655;BME280;21773;50.010;19.972;2023-07-31T01:44:13;98335.03;;;22.75;100.00
35655;BME280;21773;50.010;19.972;2023-07-31T01:47:16;98336.66;;;22.76;100.00
35655;BME280;21773;50.010;19.972;2023-07-31T01:50:20;98341.03;;;22.77;100.00
35655;BME280;21773;50.010;19.972;2023-07-31T01:53:23;98336.16;;;22.74;100.00
35655;BME280;21773;50.010;19.972;2023-07-31T01:56:26;98317.09;;;22.55;100.00
35655;BME280;21773;50.010;19.972;2023-07-31T01:59:31;98336.72;;;22.62;100.00
35655;BME280;21773;50.010;19.972;2023-07-31T02:02:34;98345.56;;;22.59;100.00
35655;BME280;21773;50.010;19.972;2023-07-31T02:05:44;98343.59;;;22.51;100.00
35655;BME280;21773;50.010;19.972;2023-07-31T02:08:47;98346.94;;;22.48;100.00
35655;BME280;21773;50.010;19.972;2023-07-31T02:11:50;98349.69;;;22.48;100.00
35655;BME280;21773;50.010;19.972;2023-07-31T02:14:55;98343.03;;;22.40;100.00
35655;BME280;21773;50.010;19.972;2023-07-31T02:17:59;98353.06;;;22.45;100.00
35655;BME280;21773;50.010;19.972;2023-07-31T02:21:02;98354.88;;;22.50;100.00
35655;BME280;21773;50.010;19.972;2023-07-31T02:24:07;98359.44;;;22.54;100.00
35655;BME280;21773;50.010;19.972;2023-07-31T02:27:10;98362.69;;;22.56;100.00
35655;BME280;21773;50.010;19.972;2023-07-31T02:30:14;98361.25;;;22.59;100.00
35655;BME280;21773;50.010;19.972;2023-07-31T02:33:18;98371.75;;;22.57;100.00
35655;BME280;21773;50.010;19.972;2023-07-31T02:36:21;98379.88;;;22.62;100.00
35655;BME280;21773;50.010;19.972;2023-07-31T02:39:25;98372.44;;;22.62;100.00
35655;BME280;21773;50.010;19.972;2023-07-31T02:42:28;98379.66;;;22.58;100.00
35655;BME280;21773;50.010;19.972;2023-07-31T02:45:33;98381.75;;;22.53;100.00
35655;BME280;21773;50.010;19.972;2023-07-31T02:48:37;98385.97;;;22.59;100.00
35655;BME280;21773;50.010;19.972;2023-07-31T02:51:40;98402.97;;;22.61;100.00
35655;BME280;21773;50.010;19.972;2023-07-31T02:54:44;98411.91;;;22.66;100.00
35655;BME280;21773;50.010;19.972;2023-07-31T02:57:47;98407.53;;;22.65;100.00
35655;BME280;21773;50.010;19.972;2023-07-31T03:00:51;98408.25;;;22.71;100.00
35655;BME280;21773;50.010;19.972;2023-07-31T03:03:55;98407.69;;;22.69;100.00
35655;BME280;21773;50.010;19.972;2023-07-31T03:06:58;98414.81;;;22.70;100.00
35655;BME280;21773;50.010;19.972;2023-07-31T03:10:01;98420.63;;;22.68;100.00
35655;BME280;21773;50.010;19.972;2023-07-31T03:13:05;98423.13;;;22.56;100.00
35655;BME280;21773;50.010;19.972;2023-07-31T03:16:09;98419.63;;;22.64;100.00
35655;BME280;21773;50.010;19.972;2023-07-31T03:19:13;98426.66;;;22.70;100.00
35655;BME280;21773;50.010;19.972;2023-07-31T03:22:16;98428.19;;;22.63;100.00
35655;BME280;21773;50.010;19.972;2023-07-31T03:25:20;98410.50;;;22.55;100.00
35655;BME280;21773;50.010;19.972;2023-07-31T03:28:23;98420.88;;;22.58;100.00
35655;BME280;21773;50.010;19.972;2023-07-31T03:31:29;98424.13;;;22.60;100.00
35655;BME280;21773;50.010;19.972;2023-07-31T03:34:32;98423.31;;;22.60;100.00
35655;BME280;21773;50.010;19.972;2023-07-31T03:37:35;98430.22;;;22.71;100.00
35655;BME280;21773;50.010;19.972;2023-07-31T03:40:41;98422.16;;;22.74;100.00
35655;BME280;21773;50.010;19.972;2023-07-31T03:43:46;98422.00;;;22.71;100.00
35655;BME280;21773;50.010;19.972;2023-07-31T03:46:50;98420.22;;;22.75;100.00
35655;BME280;21773;50.010;19.972;2023-07-31T03:49:54;98422.34;;;22.78;100.00
35655;BME280;21773;50.010;19.972;2023-07-31T03:52:57;98417.34;;;22.80;100.00
35655;BME280;21773;50.010;19.972;2023-07-31T03:56:00;98411.69;;;22.76;100.00
35655;BME280;21773;50.010;19.972;2023-07-31T03:59:04;98408.00;;;22.81;100.00
35655;BME280;21773;50.010;19.972;2023-07-31T04:02:08;98412.50;;;22.77;100.00
35655;BME280;21773;50.010;19.972;2023-07-31T04:05:11;98419.28;;;22.79;100.00
35655;BME280;21773;50.010;19.972;2023-07-31T04:08:15;98418.34;;;22.84;100.00
35655;BME280;21773;50.010;19.972;2023-07-31T04:11:18;98420.63;;;22.82;100.00
35655;BME280;21773;50.010;19.972;2023-07-31T04:14:22;98416.84;;;22.78;100.00
35655;BME280;21773;50.010;19.972;2023-07-31T04:17:27;98413.53;;;22.89;100.00
35655;BME280;21773;50.010;19.972;2023-07-31T04:20:30;98423.59;;;22.94;100.00
35655;BME280;21773;50.010;19.972;2023-07-31T04:23:33;98425.22;;;22.95;100.00
35655;BME280;21773;50.010;19.972;2023-07-31T04:26:36;98423.91;;;22.93;100.00
35655;BME280;21773;50.010;19.972;2023-07-31T04:29:40;98422.34;;;23.00;100.00
35655;BME280;21773;50.010;19.972;2023-07-31T04:32:45;98431.47;;;23.09;100.00
35655;BME280;21773;50.010;19.972;2023-07-31T04:35:50;98434.13;;;23.23;100.00
35655;BME280;21773;50.010;19.972;2023-07-31T04:38:54;98434.38;;;23.35;100.00
35655;BME280;21773;50.010;19.972;2023-07-31T04:41:58;98439.88;;;23.35;100.00
35655;BME280;21773;50.010;19.972;2023-07-31T04:45:02;98439.91;;;23.44;100.00
35655;BME280;21773;50.010;19.972;2023-07-31T04:48:07;98435.63;;;23.29;100.00
35655;BME280;21773;50.010;19.972;2023-07-31T04:51:10;98448.38;;;23.25;100.00
35655;BME280;21773;50.010;19.972;2023-07-31T04:54:13;98449.38;;;23.29;100.00
35655;BME280;21773;50.010;19.972;2023-07-31T04:57:17;98458.44;;;23.29;100.00
35655;BME280;21773;50.010;19.972;2023-07-31T05:00:20;98458.53;;;23.16;100.00
35655;BME280;21773;50.010;19.972;2023-07-31T05:03:25;98468.25;;;23.22;100.00
35655;BME280;21773;50.010;19.972;2023-07-31T05:06:28;98464.97;;;23.11;100.00
35655;BME280;21773;50.010;19.972;2023-07-31T05:09:31;98467.34;;;23.04;100.00
35655;BME280;21773;50.010;19.972;2023-07-31T05:12:34;98475.97;;;23.11;100.00
35655;BME280;21773;50.010;19.972;2023-07-31T05:15:38;98480.81;;;23.14;100.00
35655;BME280;21773;50.010;19.972;2023-07-31T05:18:42;98490.50;;;23.12;100.00
35655;BME280;21773;50.010;19.972;2023-07-31T05:21:45;98480.69;;;22.97;100.00
35655;BME280;21773;50.010;19.972;2023-07-31T05:24:49;98489.75;;;22.98;100.00
35655;BME280;21773;50.010;19.972;2023-07-31T05:27:52;98488.81;;;23.02;100.00
35655;BME280;21773;50.010;19.972;2023-07-31T05:30:59;98483.19;;;23.07;100.00
35655;BME280;21773;50.010;19.972;2023-07-31T05:34:03;98496.22;;;23.15;100.00
35655;BME280;21773;50.010;19.972;2023-07-31T05:37:06;98492.78;;;23.10;100.00
35655;BME280;21773;50.010;19.972;2023-07-31T05:40:10;98500.88;;;23.15;100.00
35655;BME280;21773;50.010;19.972;2023-07-31T05:43:14;98485.00;;;23.12;100.00
35655;BME280;21773;50.010;19.972;2023-07-31T05:46:17;98495.50;;;23.32;100.00
35655;BME280;21773;50.010;19.972;2023-07-31T05:49:22;98492.16;;;23.44;100.00
35655;BME280;21773;50.010;19.972;2023-07-31T05:52:25;98498.97;;;23.68;100.00
35655;BME280;21773;50.010;19.972;2023-07-31T05:55:28;98499.50;;;23.79;100.00
35655;BME280;21773;50.010;19.972;2023-07-31T05:58:31;98500.84;;;23.90;100.00
35655;BME280;21773;50.010;19.972;2023-07-31T06:01:34;98505.38;;;23.95;100.00
35655;BME280;21773;50.010;19.972;2023-07-31T06:04:39;98499.41;;;23.93;100.00
35655;BME280;21773;50.010;19.972;2023-07-31T06:07:42;98487.69;;;23.79;100.00
35655;BME280;21773;50.010;19.972;2023-07-31T06:10:46;98510.72;;;23.91;100.00
35655;BME280;21773;50.010;19.972;2023-07-31T06:13:49;98500.34;;;23.88;100.00
35655;BME280;21773;50.010;19.972;2023-07-31T06:16:53;98499.84;;;23.86;100.00
35655;BME280;21773;50.010;19.972;2023-07-31T06:19:57;98501.78;;;23.86;100.00
35655;BME280;21773;50.010;19.972;2023-07-31T06:23:00;98496.66;;;23.93;100.00
35655;BME280;21773;50.010;19.972;2023-07-31T06:26:04;98492.13;;;23.97;100.00
35655;BME280;21773;50.010;19.972;2023-07-31T06:29:07;98502.19;;;24.01;100.00
35655;BME280;21773;50.010;19.972;2023-07-31T06:32:10;98501.19;;;23.97;100.00
35655;BME280;21773;50.010;19.972;2023-07-31T06:35:15;98502.19;;;24.01;100.00
35655;BME280;21773;50.010;19.972;2023-07-31T06:38:21;98513.97;;;23.93;100.00
35655;BME280;21773;50.010;19.972;2023-07-31T06:41:25;98507.81;;;23.96;100.00
35655;BME280;21773;50.010;19.972;2023-07-31T06:44:28;98503.41;;;23.87;100.00
35655;BME280;21773;50.010;19.972;2023-07-31T06:47:31;98502.47;;;23.91;100.00
35655;BME280;21773;50.010;19.972;2023-07-31T06:50:36;98496.34;;;24.03;100.00
35655;BME280;21773;50.010;19.972;2023-07-31T06:53:40;98496.81;;;23.96;100.00
35655;BME280;21773;50.010;19.972;2023-07-31T06:56:43;98500.75;;;24.04;100.00
35655;BME280;21773;50.010;19.972;2023-07-31T06:59:46;98502.06;;;24.15;100.00
35655;BME280;21773;50.010;19.972;2023-07-31T07:02:50;98508.44;;;24.24;100.00
35655;BME280;21773;50.010;19.972;2023-07-31T07:05:55;98501.47;;;24.27;100.00
35655;BME280;21773;50.010;19.972;2023-07-31T07:08:58;98506.16;;;24.17;100.00
35655;BME280;21773;50.010;19.972;2023-07-31T07:12:01;98511.38;;;24.28;100.00
35655;BME280;21773;50.010;19.972;2023-07-31T07:15:06;98514.50;;;24.43;100.00
35655;BME280;21773;50.010;19.972;2023-07-31T07:18:09;98501.19;;;24.54;100.00
35655;BME280;21773;50.010;19.972;2023-07-31T07:21:14;98507.53;;;24.63;100.00
35655;BME280;21773;50.010;19.972;2023-07-31T07:24:19;98499.59;;;24.70;100.00
35655;BME280;21773;50.010;19.972;2023-07-31T07:27:23;98507.94;;;24.87;100.00
35655;BME280;21773;50.010;19.972;2023-07-31T07:30:27;98499.78;;;24.99;100.00
35655;BME280;21773;50.010;19.972;2023-07-31T07:33:31;98511.63;;;25.09;100.00
35655;BME280;21773;50.010;19.972;2023-07-31T07:36:35;98492.34;;;24.91;100.00
35655;BME280;21773;50.010;19.972;2023-07-31T07:39:39;98507.56;;;24.97;100.00
35655;BME280;21773;50.010;19.972;2023-07-31T07:42:42;98513.91;;;25.07;100.00
35655;BME280;21773;50.010;19.972;2023-07-31T07:45:45;98511.63;;;25.17;100.00
35655;BME280;21773;50.010;19.972;2023-07-31T07:48:50;98511.47;;;25.05;100.00
35655;BME280;21773;50.010;19.972;2023-07-31T07:51:55;98510.84;;;24.91;100.00
35655;BME280;21773;50.010;19.972;2023-07-31T07:54:59;98518.94;;;24.87;100.00
35655;BME280;21773;50.010;19.972;2023-07-31T07:58:02;98519.41;;;24.72;100.00
35655;BME280;21773;50.010;19.972;2023-07-31T08:01:05;98516.47;;;24.77;100.00
35655;BME280;21773;50.010;19.972;2023-07-31T08:04:09;98520.03;;;24.78;100.00
35655;BME280;21773;50.010;19.972;2023-07-31T08:07:13;98518.28;;;24.82;100.00
35655;BME280;21773;50.010;19.972;2023-07-31T08:10:16;98512.63;;;24.95;100.00
35655;BME280;21773;50.010;19.972;2023-07-31T08:13:20;98520.22;;;24.98;100.00
35655;BME280;21773;50.010;19.972;2023-07-31T08:16:23;98522.53;;;24.96;100.00
35655;BME280;21773;50.010;19.972;2023-07-31T08:19:26;98520.72;;;25.00;100.00
35655;BME280;21773;50.010;19.972;2023-07-31T08:22:31;98518.78;;;25.01;100.00
35655;BME280;21773;50.010;19.972;2023-07-31T08:25:34;98518.59;;;24.89;100.00
35655;BME280;21773;50.010;19.972;2023-07-31T08:28:38;98523.31;;;24.88;100.00
35655;BME280;21773;50.010;19.972;2023-07-31T08:31:42;98527.53;;;24.94;100.00
35655;BME280;21773;50.010;19.972;2023-07-31T08:34:45;98531.59;;;25.06;100.00
35655;BME280;21773;50.010;19.972;2023-07-31T08:37:50;98529.00;;;25.00;100.00
35655;BME280;21773;50.010;19.972;2023-07-31T08:40:53;98534.19;;;25.11;100.00
35655;BME280;21773;50.010;19.972;2023-07-31T08:44:00;98528.34;;;25.12;100.00
35655;BME280;21773;50.010;19.972;2023-07-31T08:47:04;98476.72;;;24.70;100.00
35655;BME280;21773;50.010;19.972;2023-07-31T08:50:09;98537.44;;;25.30;100.00
35655;BME280;21773;50.010;19.972;2023-07-31T08:53:14;98528.94;;;25.52;100.00
35655;BME280;21773;50.010;19.972;2023-07-31T08:56:18;98536.00;;;25.87;100.00
35655;BME280;21773;50.010;19.972;2023-07-31T08:59:22;98528.81;;;26.04;100.00
35655;BME280;21773;50.010;19.972;2023-07-31T09:02:30;98528.53;;;25.88;100.00
35655;BME280;21773;50.010;19.972;2023-07-31T09:05:36;98525.28;;;25.86;100.00
35655;BME280;21773;50.010;19.972;2023-07-31T09:08:43;98532.28;;;25.83;100.00
35655;BME280;21773;50.010;19.972;2023-07-31T09:11:47;98536.81;;;25.88;100.00
35655;BME280;21773;50.010;19.972;2023-07-31T09:14:50;98530.50;;;25.87;100.00
35655;BME280;21773;50.010;19.972;2023-07-31T09:17:59;98526.94;;;25.78;100.00
35655;BME280;21773;50.010;19.972;2023-07-31T09:21:04;98533.56;;;25.86;100.00
35655;BME280;21773;50.010;19.972;2023-07-31T09:24:09;98531.94;;;25.94;100.00
35655;BME280;21773;50.010;19.972;2023-07-31T09:27:12;98534.25;;;26.21;100.00
35655;BME280;21773;50.010;19.972;2023-07-31T09:30:16;98529.88;;;26.28;100.00
35655;BME280;21773;50.010;19.972;2023-07-31T09:33:19;98523.50;;;26.57;100.00
35655;BME280;21773;50.010;19.972;2023-07-31T09:36:22;98514.50;;;27.10;100.00
35655;BME280;21773;50.010;19.972;2023-07-31T09:39:27;98518.06;;;27.77;100.00
35655;BME280;21773;50.010;19.972;2023-07-31T09:42:30;98515.81;;;28.39;100.00
35655;BME280;21773;50.010;19.972;2023-07-31T09:45:36;98499.44;;;28.99;100.00
35655;BME280;21773;50.010;19.972;2023-07-31T09:48:43;98503.84;;;29.55;100.00
35655;BME280;21773;50.010;19.972;2023-07-31T09:51:46;98503.44;;;29.69;100.00
35655;BME280;21773;50.010;19.972;2023-07-31T09:54:51;98505.00;;;29.98;100.00
35655;BME280;21773;50.010;19.972;2023-07-31T09:57:56;98505.81;;;29.98;100.00
35655;BME280;21773;50.010;19.972;2023-07-31T10:01:01;98502.66;;;30.16;100.00
35655;BME280;21773;50.010;19.972;2023-07-31T10:04:05;98490.09;;;30.22;100.00
35655;BME280;21773;50.010;19.972;2023-07-31T10:07:09;98487.75;;;30.39;100.00
35655;BME280;21773;50.010;19.972;2023-07-31T10:10:15;98481.69;;;30.69;100.00
35655;BME280;21773;50.010;19.972;2023-07-31T10:13:19;98486.81;;;30.86;100.00
35655;BME280;21773;50.010;19.972;2023-07-31T10:16:24;98480.31;;;30.97;100.00
35655;BME280;21773;50.010;19.972;2023-07-31T10:19:28;98482.91;;;31.06;100.00
35655;BME280;21773;50.010;19.972;2023-07-31T10:22:33;98476.16;;;31.07;100.00
35655;BME280;21773;50.010;19.972;2023-07-31T10:25:38;98463.34;;;31.22;100.00
35655;BME280;21773;50.010;19.972;2023-07-31T10:28:43;98457.00;;;31.25;100.00
35655;BME280;21773;50.010;19.972;2023-07-31T10:31:48;98448.91;;;31.16;99.80
35655;BME280;21773;50.010;19.972;2023-07-31T10:34:52;98454.69;;;31.50;100.00
35655;BME280;21773;50.010;19.972;2023-07-31T10:37:55;98461.06;;;31.69;100.00
35655;BME280;21773;50.010;19.972;2023-07-31T10:41:13;98454.91;;;31.83;96.11
35655;BME280;21773;50.010;19.972;2023-07-31T10:44:17;98455.38;;;31.85;91.91
35655;BME280;21773;50.010;19.972;2023-07-31T10:47:22;98453.97;;;32.21;97.68
35655;BME280;21773;50.010;19.972;2023-07-31T10:50:25;98447.22;;;32.22;92.01
35655;BME280;21773;50.010;19.972;2023-07-31T10:53:30;98441.75;;;32.29;89.13
35655;BME280;21773;50.010;19.972;2023-07-31T10:56:38;98435.63;;;32.20;87.01
35655;BME280;21773;50.010;19.972;2023-07-31T10:59:42;98438.53;;;32.04;86.26
35655;BME280;21773;50.010;19.972;2023-07-31T11:02:56;98423.75;;;31.77;88.17
35655;BME280;21773;50.010;19.972;2023-07-31T11:06:01;98438.50;;;31.78;93.46
35655;BME280;21773;50.010;19.972;2023-07-31T11:09:05;98431.06;;;31.63;90.86
35655;BME280;21773;50.010;19.972;2023-07-31T11:12:10;98435.63;;;31.52;89.94
35655;BME280;21773;50.010;19.972;2023-07-31T11:15:14;98423.22;;;31.68;94.79
35655;BME280;21773;50.010;19.972;2023-07-31T11:18:17;98418.03;;;31.93;95.45
35655;BME280;21773;50.010;19.972;2023-07-31T11:21:22;98420.44;;;32.17;86.75
35655;BME280;21773;50.010;19.972;2023-07-31T11:24:26;98412.75;;;32.37;83.67
35655;BME280;21773;50.010;19.972;2023-07-31T11:27:38;98418.31;;;32.34;87.72
35655;BME280;21773;50.010;19.972;2023-07-31T11:30:43;98417.69;;;32.21;83.80
35655;BME280;21773;50.010;19.972;2023-07-31T11:33:48;98412.28;;;32.32;85.26
35655;BME280;21773;50.010;19.972;2023-07-31T11:36:54;98407.41;;;32.55;85.10
35655;BME280;21773;50.010;19.972;2023-07-31T11:39:59;98421.38;;;32.85;80.76
35655;BME280;21773;50.010;19.972;2023-07-31T11:43:04;98417.38;;;32.26;81.52
35655;BME280;21773;50.010;19.972;2023-07-31T11:46:07;98420.94;;;32.23;85.23
35655;BME280;21773;50.010;19.972;2023-07-31T11:49:11;98410.34;;;32.36;82.56
35655;BME280;21773;50.010;19.972;2023-07-31T11:52:15;98415.66;;;32.18;74.90
35655;BME280;21773;50.010;19.972;2023-07-31T11:55:18;98399.47;;;32.27;76.72
35655;BME280;21773;50.010;19.972;2023-07-31T11:58:23;98400.72;;;32.07;75.61
35655;BME280;21773;50.010;19.972;2023-07-31T12:01:27;98400.56;;;32.19;78.72
35655;BME280;21773;50.010;19.972;2023-07-31T12:04:31;98392.59;;;32.21;75.08
35655;BME280;21773;50.010;19.972;2023-07-31T12:07:45;98387.91;;;32.25;80.45
35655;BME280;21773;50.010;19.972;2023-07-31T12:10:50;98385.91;;;32.55;82.73
35655;BME280;21773;50.010;19.972;2023-07-31T12:13:55;98392.75;;;32.61;77.42
35655;BME280;21773;50.010;19.972;2023-07-31T12:16:59;98403.63;;;32.66;78.94
35655;BME280;21773;50.010;19.972;2023-07-31T12:20:04;98379.56;;;32.58;76.39
35655;BME280;21773;50.010;19.972;2023-07-31T12:23:14;98378.28;;;32.82;75.73
35655;BME280;21773;50.010;19.972;2023-07-31T12:26:17;98378.13;;;32.68;72.75
35655;BME280;21773;50.010;19.972;2023-07-31T12:29:22;98371.09;;;32.81;73.79
35655;BME280;21773;50.010;19.972;2023-07-31T12:32:25;98371.25;;;32.95;72.01
35655;BME280;21773;50.010;19.972;2023-07-31T12:35:35;98366.56;;;32.70;73.27
35655;BME280;21773;50.010;19.972;2023-07-31T12:38:39;98363.53;;;32.52;77.43
35655;BME280;21773;50.010;19.972;2023-07-31T12:41:42;98359.78;;;32.41;77.38
35655;BME280;21773;50.010;19.972;2023-07-31T12:44:48;98360.06;;;32.62;79.26
35655;BME280;21773;50.010;19.972;2023-07-31T12:47:51;98357.94;;;32.82;78.22
35655;BME280;21773;50.010;19.972;2023-07-31T12:50:54;98355.63;;;32.87;71.93
35655;BME280;21773;50.010;19.972;2023-07-31T12:53:57;98341.81;;;33.01;73.58
35655;BME280;21773;50.010;19.972;2023-07-31T12:57:00;98350.03;;;32.87;73.69
35655;BME280;21773;50.010;19.972;2023-07-31T13:00:06;98350.06;;;32.91;73.03
35655;BME280;21773;50.010;19.972;2023-07-31T13:03:10;98345.88;;;33.07;74.97
35655;BME280;21773;50.010;19.972;2023-07-31T13:06:14;98339.53;;;33.14;74.15
35655;BME280;21773;50.010;19.972;2023-07-31T13:09:18;98346.59;;;33.01;65.48
35655;BME280;21773;50.010;19.972;2023-07-31T13:12:21;98344.03;;;32.85;69.38
35655;BME280;21773;50.010;19.972;2023-07-31T13:15:26;98330.06;;;32.85;74.41
35655;BME280;21773;50.010;19.972;2023-07-31T13:18:29;98335.63;;;32.82;73.98
35655;BME280;21773;50.010;19.972;2023-07-31T13:21:32;98338.00;;;32.50;71.32
35655;BME280;21773;50.010;19.972;2023-07-31T13:24:37;98329.72;;;32.27;74.08
35655;BME280;21773;50.010;19.972;2023-07-31T13:27:41;98324.66;;;32.36;76.12
35655;BME280;21773;50.010;19.972;2023-07-31T13:30:45;98315.97;;;32.41;76.17
35655;BME280;21773;50.010;19.972;2023-07-31T13:33:49;98326.53;;;32.25;73.90
35655;BME280;21773;50.010;19.972;2023-07-31T13:36:54;98319.00;;;32.29;75.29
35655;BME280;21773;50.010;19.972;2023-07-31T13:39:57;98322.13;;;32.24;75.17
35655;BME280;21773;50.010;19.972;2023-07-31T13:43:01;98311.88;;;32.05;74.84
35655;BME280;21773;50.010;19.972;2023-07-31T13:46:06;98318.28;;;32.06;76.41
35655;BME280;21773;50.010;19.972;2023-07-31T13:49:10;98300.66;;;32.02;75.14
35655;BME280;21773;50.010;19.972;2023-07-31T13:52:14;98321.22;;;32.16;76.67
35655;BME280;21773;50.010;19.972;2023-07-31T13:55:17;98311.94;;;32.09;73.42
35655;BME280;21773;50.010;19.972;2023-07-31T13:58:21;98306.25;;;32.02;72.93
35655;BME280;21773;50.010;19.972;2023-07-31T14:01:26;98303.75;;;31.93;70.55
35655;BME280;21773;50.010;19.972;2023-07-31T14:04:30;98286.31;;;32.00;74.99
35655;BME280;21773;50.010;19.972;2023-07-31T14:07:33;98308.19;;;32.24;73.84
35655;BME280;21773;50.010;19.972;2023-07-31T14:10:37;98305.44;;;32.28;70.84
35655;BME280;21773;50.010;19.972;2023-07-31T14:13:40;98298.88;;;32.13;68.51
35655;BME280;21773;50.010;19.972;2023-07-31T14:16:45;98308.19;;;31.98;67.31
35655;BME280;21773;50.010;19.972;2023-07-31T14:19:50;98302.75;;;31.56;68.50
35655;BME280;21773;50.010;19.972;2023-07-31T14:22:54;98278.66;;;31.67;71.41
35655;BME280;21773;50.010;19.972;2023-07-31T14:26:00;98274.81;;;31.75;70.99
35655;BME280;21773;50.010;19.972;2023-07-31T14:29:04;98281.78;;;31.62;69.56
35655;BME280;21773;50.010;19.972;2023-07-31T14:32:09;98288.03;;;31.55;69.10
35655;BME280;21773;50.010;19.972;2023-07-31T14:35:12;98283.28;;;31.33;68.86
35655;BME280;21773;50.010;19.972;2023-07-31T14:38:16;98280.03;;;31.27;69.67
35655;BME280;21773;50.010;19.972;2023-07-31T14:41:20;98272.75;;;31.23;71.98
35655;BME280;21773;50.010;19.972;2023-07-31T14:44:23;98270.31;;;30.98;71.57
35655;BME280;21773;50.010;19.972;2023-07-31T14:47:28;98267.75;;;30.86;72.97
35655;BME280;21773;50.010;19.972;2023-07-31T14:50:33;98275.47;;;30.96;74.84
35655;BME280;21773;50.010;19.972;2023-07-31T14:53:36;98263.31;;;31.05;74.24
35655;BME280;21773;50.010;19.972;2023-07-31T14:56:39;98267.25;;;31.04;72.29
35655;BME280;21773;50.010;19.972;2023-07-31T14:59:43;98262.28;;;31.13;74.42
35655;BME280;21773;50.010;19.972;2023-07-31T15:02:47;98261.69;;;31.26;74.31
35655;BME280;21773;50.010;19.972;2023-07-31T15:05:51;98251.69;;;31.22;73.89
35655;BME280;21773;50.010;19.972;2023-07-31T15:08:54;98251.88;;;31.10;71.96
35655;BME280;21773;50.010;19.972;2023-07-31T15:11:58;98248.25;;;30.86;73.77
35655;BME280;21773;50.010;19.972;2023-07-31T15:15:01;98253.88;;;30.90;75.70
35655;BME280;21773;50.010;19.972;2023-07-31T15:18:06;98252.00;;;30.75;76.58
35655;BME280;21773;50.010;19.972;2023-07-31T15:21:09;98252.75;;;30.49;75.87
35655;BME280;21773;50.010;19.972;2023-07-31T15:24:12;98258.59;;;30.25;77.18
35655;BME280;21773;50.010;19.972;2023-07-31T15:27:16;98244.53;;;30.18;78.56
35655;BME280;21773;50.010;19.972;2023-07-31T15:30:19;98240.94;;;30.17;78.47
35655;BME280;21773;50.010;19.972;2023-07-31T15:33:24;98238.75;;;30.07;79.38
35655;BME280;21773;50.010;19.972;2023-07-31T15:36:27;98240.13;;;29.97;80.80
35655;BME280;21773;50.010;19.972;2023-07-31T15:39:30;98245.28;;;29.95;80.68
35655;BME280;21773;50.010;19.972;2023-07-31T15:42:34;98249.44;;;30.05;82.09
35655;BME280;21773;50.010;19.972;2023-07-31T15:45:41;98237.00;;;29.99;81.18
35655;BME280;21773;50.010;19.972;2023-07-31T15:48:45;98236.84;;;29.92;83.83
35655;BME280;21773;50.010;19.972;2023-07-31T15:51:49;98240.53;;;29.80;82.55
35655;BME280;21773;50.010;19.972;2023-07-31T15:54:52;98249.06;;;29.71;84.59